createdAt,value
2023-03-11T06:19:51.014Z,315.00
2023-03-11T06:29:50.972Z,315.00
2023-03-11T06:39:50.963Z,315.00
2023-03-11T06:49:50.744Z,315.00
2023-03-11T06:59:50.841Z,315.00
2023-03-11T07:09:50.794Z,315.00
2023-03-11T07:19:50.822Z,315.00
2023-03-11T07:29:50.956Z,315.00
2023-03-11T07:39:50.841Z,315.00
2023-03-11T07:49:50.922Z,315.00
2023-03-11T07:59:50.934Z,315.00
2023-03-11T08:09:50.870Z,315.00
2023-03-11T08:19:50.981Z,315.00
2023-03-11T08:29:50.817Z,315.00
2023-03-11T08:39:50.858Z,315.00
2023-03-11T08:49:51.058Z,315.00
2023-03-11T08:59:50.842Z,315.00
2023-03-11T09:09:51.034Z,315.00
2023-03-11T09:19:50.828Z,315.00
2023-03-11T09:29:51.018Z,315.00
2023-03-11T09:39:50.997Z,315.00
2023-03-11T09:49:50.947Z,315.00
2023-03-11T09:59:51.120Z,315.00
2023-03-11T10:09:51.196Z,315.00
2023-03-11T10:19:50.970Z,315.00
2023-03-11T10:29:51.112Z,315.42
2023-03-11T10:39:51.188Z,273.69
2023-03-11T10:49:50.980Z,274.47
2023-03-11T10:59:50.969Z,300.53
2023-03-11T11:09:50.900Z,301.05
2023-03-11T11:19:51.022Z,215.01
2023-03-11T11:29:51.097Z,249.88
2023-03-11T11:39:51.068Z,209.50
2023-03-11T11:49:50.943Z,261.12
2023-03-11T11:59:51.222Z,204.83
2023-03-11T12:09:50.950Z,261.95
2023-03-11T12:19:51.054Z,219.64
2023-03-11T12:29:50.970Z,209.58
2023-03-11T12:39:51.051Z,237.98
2023-03-11T12:49:51.047Z,206.70
2023-03-11T12:59:50.974Z,203.64
2023-03-11T13:09:51.056Z,308.36
2023-03-11T13:19:51.105Z,283.69
2023-03-11T13:29:50.958Z,266.06
2023-03-11T13:39:50.930Z,245.01
2023-03-11T13:49:50.951Z,241.62
2023-03-11T13:59:51.168Z,303.50
2023-03-11T14:09:51.137Z,231.77
2023-03-11T14:19:51.083Z,285.94
2023-03-11T14:29:50.891Z,252.61
2023-03-11T14:39:53.385Z,257.22
2023-03-11T14:49:50.983Z,226.34
2023-03-11T14:59:50.933Z,193.90
2023-03-11T15:09:51.216Z,213.00
2023-03-11T15:19:51.205Z,229.66
2023-03-11T15:29:51.138Z,213.83
2023-03-11T15:39:51.074Z,191.62
2023-03-11T15:49:50.913Z,230.32
2023-03-11T15:59:51.164Z,257.90
2023-03-11T16:09:51.054Z,211.71
2023-03-11T16:19:50.890Z,255.23
2023-03-11T16:29:51.016Z,217.33
2023-03-11T16:39:51.085Z,193.99
2023-03-11T16:49:50.958Z,186.52
2023-03-11T16:59:51.319Z,216.63
2023-03-11T17:09:51.205Z,186.70
2023-03-11T17:19:51.144Z,164.06
2023-03-11T17:29:51.209Z,180.00
2023-03-11T17:39:51.315Z,179.25
2023-03-11T17:49:51.184Z,179.32
2023-03-11T17:59:51.092Z,180.00
2023-03-11T18:09:51.260Z,179.89
2023-03-11T18:19:51.331Z,180.00
2023-03-11T18:29:51.392Z,178.26
2023-03-11T18:39:51.360Z,180.00
2023-03-11T18:49:51.215Z,180.00
2023-03-11T18:59:51.036Z,180.00
2023-03-11T19:09:51.290Z,180.00
2023-03-11T19:19:51.391Z,180.00
